createdAt,value
2018-06-15T00:00:04.964Z,16.8
2018-06-15T00:15:04.687Z,16.7
2018-06-15T00:30:04.798Z,16.6
2018-06-15T00:45:05.329Z,16.5
2018-06-15T01:00:04.455Z,16.3
2018-06-15T01:15:04.880Z,16.2
2018-06-15T01:30:04.604Z,16.3
2018-06-15T01:45:05.154Z,16.3
2018-06-15T02:00:04.733Z,16.1
2018-06-15T02:15:04.624Z,16.1
2018-06-15T02:30:05.175Z,16
2018-06-15T02:45:04.747Z,15.9
2018-06-15T03:00:04.341Z,15.8
2018-06-15T03:15:05.113Z,15.8
2018-06-15T03:30:05.147Z,15.7
2018-06-15T03:45:05.035Z,15.6
2018-06-15T04:00:04.394Z,15.5
2018-06-15T04:15:04.684Z,15.5
2018-06-15T04:30:04.556Z,15.6
2018-06-15T04:45:04.931Z,15.7
2018-06-15T05:00:04.832Z,15.8
2018-06-15T05:15:04.901Z,16
2018-06-15T05:30:05.064Z,16.3
2018-06-15T05:45:04.962Z,16.8
2018-06-15T06:00:04.988Z,17.3
2018-06-15T06:15:04.375Z,18
2018-06-15T06:30:05.028Z,18.3
2018-06-15T06:45:05.076Z,18.7
2018-06-15T07:00:04.334Z,19.2
2018-06-15T07:15:04.863Z,19.4
2018-06-15T07:30:05.138Z,19.9
2018-06-15T07:45:05.155Z,20.6
2018-06-15T08:00:04.630Z,21.1
2018-06-15T08:15:04.676Z,21.6
2018-06-15T08:30:04.322Z,22.1
2018-06-15T08:45:04.364Z,22.9
2018-06-15T09:00:04.207Z,22.8
2018-06-15T09:15:04.658Z,23
2018-06-15T09:30:04.302Z,23.4
2018-06-15T09:45:04.276Z,24
2018-06-15T10:00:04.796Z,24.1
2018-06-15T10:15:04.219Z,24
2018-06-15T10:30:04.866Z,24.3
2018-06-15T10:45:04.772Z,24.2
2018-06-15T11:00:05.188Z,24.3
2018-06-15T11:15:05.248Z,24
2018-06-15T11:30:05.108Z,24
2018-06-15T11:45:04.520Z,24.6
2018-06-15T12:00:05.118Z,24.2
2018-06-15T12:15:05.134Z,24.6
2018-06-15T12:30:04.429Z,24.5
2018-06-15T12:45:04.387Z,24.4
2018-06-15T13:00:05.269Z,24.3
2018-06-15T13:15:05.077Z,24.4
2018-06-15T13:30:05.261Z,24.5
2018-06-15T13:45:04.654Z,24.5
2018-06-15T14:00:04.754Z,24.4
2018-06-15T14:15:04.835Z,24.2
2018-06-15T14:30:04.911Z,24.5
2018-06-15T14:45:05.002Z,24.4
2018-06-15T15:00:04.486Z,24.3
2018-06-15T15:15:04.393Z,24.6
2018-06-15T15:30:05.370Z,24.6
2018-06-15T15:45:04.750Z,24.6
2018-06-15T16:00:05.036Z,24.6
2018-06-15T16:15:04.809Z,24.7
2018-06-15T16:30:04.776Z,25.1
2018-06-15T16:45:04.230Z,24.7
2018-06-15T17:00:04.632Z,24.7
2018-06-15T17:15:05.047Z,24.7
2018-06-15T17:30:04.860Z,24.7
2018-06-15T17:45:04.296Z,24.4
2018-06-15T18:00:04.579Z,24.3
2018-06-15T18:15:04.509Z,24.2
